createdAt,value
2022-09-04T00:00:19.436Z,16.55
2022-09-04T00:03:18.869Z,16.63
2022-09-04T00:05:53.426Z,16.59
2022-09-04T00:08:50.247Z,16.65
2022-09-04T00:11:38.266Z,16.63
2022-09-04T00:14:14.661Z,16.63
2022-09-04T00:16:51.363Z,16.61
2022-09-04T00:19:33.812Z,16.59
2022-09-04T00:22:11.226Z,16.62
2022-09-04T00:24:47.813Z,16.63
2022-09-04T00:27:24.810Z,16.59
2022-09-04T00:30:03.283Z,16.60
2022-09-04T00:32:41.541Z,16.63
2022-09-04T00:35:17.956Z,16.65
2022-09-04T00:37:56.915Z,16.70
2022-09-04T00:40:31.448Z,16.73
2022-09-04T00:43:42.588Z,16.81
2022-09-04T00:46:38.550Z,16.79
2022-09-04T00:49:34.062Z,16.91
2022-09-04T00:52:15.444Z,16.93
2022-09-04T00:55:08.656Z,16.94
2022-09-04T00:58:28.086Z,16.87
2022-09-04T01:01:00.533Z,16.95
2022-09-04T01:04:02.501Z,16.91
2022-09-04T01:06:43.724Z,16.93
2022-09-04T01:10:09.764Z,16.92
2022-09-04T01:12:46.798Z,16.91
2022-09-04T01:15:23.785Z,16.92
2022-09-04T01:18:04.361Z,16.93
2022-09-04T01:21:16.633Z,16.98
2022-09-04T01:24:19.814Z,17.00
2022-09-04T01:27:00.404Z,17.02
2022-09-04T01:29:45.259Z,17.04
2022-09-04T01:32:30.491Z,17.03
2022-09-04T01:35:10.344Z,17.06
2022-09-04T01:37:56.788Z,17.06
2022-09-04T01:40:37.067Z,17.11
2022-09-04T01:43:12.584Z,17.13
2022-09-04T01:46:38.853Z,17.13
2022-09-04T01:49:20.725Z,17.13
2022-09-04T01:52:04.394Z,17.12
2022-09-04T01:54:50.274Z,17.05
2022-09-04T01:57:38.565Z,17.08
2022-09-04T02:00:13.103Z,17.14
2022-09-04T02:03:02.400Z,17.12
2022-09-04T02:05:48.425Z,17.10
2022-09-04T02:08:36.896Z,17.05
2022-09-04T02:11:12.396Z,17.15
2022-09-04T02:14:02.342Z,17.15
2022-09-04T02:16:47.113Z,17.20
2022-09-04T02:19:32.921Z,17.17
2022-09-04T02:22:17.459Z,17.22
2022-09-04T02:25:04.698Z,17.28
2022-09-04T02:27:43.048Z,17.29
2022-09-04T02:30:15.254Z,17.21
2022-09-04T02:32:57.613Z,17.24
2022-09-04T02:35:38.143Z,17.26
2022-09-04T02:38:19.761Z,17.33
2022-09-04T02:40:56.470Z,17.32
2022-09-04T02:43:47.997Z,17.40
2022-09-04T02:46:25.780Z,17.41
2022-09-04T02:49:13.367Z,17.39
2022-09-04T02:52:01.980Z,17.36
2022-09-04T02:54:48.659Z,17.25
2022-09-04T02:57:29.982Z,17.28
2022-09-04T03:00:09.298Z,17.26
2022-09-04T03:02:46.525Z,17.25
2022-09-04T03:05:24.657Z,17.27
2022-09-04T03:08:04.336Z,17.43
2022-09-04T03:10:40.605Z,17.44
2022-09-04T03:13:21.113Z,17.49
2022-09-04T03:15:56.994Z,17.49
2022-09-04T03:18:34.565Z,17.50
2022-09-04T03:21:12.300Z,17.51
2022-09-04T03:23:51.895Z,17.57
2022-09-04T03:26:26.367Z,17.60
2022-09-04T03:29:15.120Z,17.36
2022-09-04T03:31:58.664Z,17.12
2022-09-04T03:34:39.791Z,16.29
2022-09-04T03:37:44.418Z,15.87
2022-09-04T03:40:34.403Z,15.61
2022-09-04T03:43:36.797Z,15.55
2022-09-04T03:46:24.870Z,15.51
2022-09-04T03:49:17.427Z,15.48
2022-09-04T03:52:00.717Z,15.47
2022-09-04T03:54:50.243Z,15.42
2022-09-04T03:57:44.020Z,15.53
2022-09-04T04:00:18.418Z,15.44
2022-09-04T04:03:11.090Z,15.46
2022-09-04T04:05:50.195Z,15.44
2022-09-04T04:08:56.799Z,15.39
2022-09-04T04:11:47.274Z,15.46
2022-09-04T04:14:38.502Z,15.43
2022-09-04T04:18:00.230Z,15.39
2022-09-04T04:20:42.471Z,15.33
2022-09-04T04:23:58.140Z,15.24
2022-09-04T04:26:54.046Z,15.19
2022-09-04T04:30:03.207Z,15.14
2022-09-04T04:33:12.081Z,14.93
2022-09-04T04:35:54.917Z,14.95
2022-09-04T04:38:39.413Z,14.85
2022-09-04T04:41:31.833Z,14.82
2022-09-04T04:44:12.954Z,14.76
2022-09-04T04:47:01.326Z,14.67
2022-09-04T04:49:51.121Z,14.62
2022-09-04T04:52:37.092Z,14.55
2022-09-04T04:55:17.257Z,14.47
2022-09-04T04:58:05.538Z,14.49
2022-09-04T05:00:44.779Z,14.60
2022-09-04T05:03:24.951Z,14.57
2022-09-04T05:06:02.631Z,14.59
2022-09-04T05:08:43.855Z,14.57
2022-09-04T05:11:25.992Z,14.56
2022-09-04T05:14:10.110Z,14.50
2022-09-04T05:16:55.972Z,14.50
2022-09-04T05:19:33.892Z,14.55
2022-09-04T05:22:15.308Z,14.48
2022-09-04T05:25:01.195Z,14.43
2022-09-04T05:27:49.818Z,14.30
2022-09-04T05:30:29.578Z,14.31
2022-09-04T05:33:09.742Z,14.38
2022-09-04T05:35:51.330Z,14.35
2022-09-04T05:38:31.161Z,14.33
2022-09-04T05:41:08.256Z,14.31
2022-09-04T05:44:01.676Z,14.32
2022-09-04T05:46:52.028Z,14.32
2022-09-04T05:49:44.884Z,14.33
2022-09-04T05:52:51.826Z,14.32
2022-09-04T05:55:36.449Z,14.31
2022-09-04T05:58:39.223Z,14.28
2022-09-04T06:01:26.012Z,14.27
2022-09-04T06:04:31.636Z,14.27
2022-09-04T06:07:11.836Z,14.24
2022-09-04T06:10:00.266Z,14.26
2022-09-04T06:13:15.508Z,14.20
2022-09-04T06:16:03.796Z,14.24
2022-09-04T06:18:58.802Z,14.23
2022-09-04T06:22:02.716Z,14.23
2022-09-04T06:24:53.880Z,14.24
2022-09-04T06:27:51.560Z,14.16
2022-09-04T06:30:21.105Z,14.20
2022-09-04T06:33:37.771Z,14.20
2022-09-04T06:36:27.813Z,14.18
2022-09-04T06:39:30.601Z,14.13
2022-09-04T06:42:24.204Z,14.24
2022-09-04T06:45:11.243Z,14.34
2022-09-04T06:47:58.307Z,14.36
2022-09-04T06:50:39.079Z,14.39
2022-09-04T06:53:27.094Z,14.46
2022-09-04T06:56:22.833Z,14.57
2022-09-04T06:59:38.345Z,14.71
2022-09-04T07:02:27.328Z,15.02
2022-09-04T07:05:15.683Z,15.40
2022-09-04T07:07:56.477Z,15.72
2022-09-04T07:10:31.924Z,16.10
2022-09-04T07:13:40.523Z,16.47
2022-09-04T07:16:32.091Z,16.82
2022-09-04T07:19:48.850Z,17.09
2022-09-04T07:22:45.623Z,17.33
2022-09-04T07:25:24.295Z,17.49
2022-09-04T07:28:14.287Z,17.63
2022-09-04T07:30:53.717Z,17.85
2022-09-04T07:33:33.394Z,18.04
2022-09-04T07:36:11.601Z,18.08
2022-09-04T07:38:53.928Z,18.12
2022-09-04T07:41:33.489Z,18.09
2022-09-04T07:44:15.217Z,18.07
2022-09-04T07:47:00.450Z,18.25
2022-09-04T07:49:37.415Z,18.47
2022-09-04T07:52:21.524Z,18.66
2022-09-04T07:55:19.093Z,18.84
2022-09-04T07:58:20.412Z,19.03
2022-09-04T08:01:58.615Z,19.12
2022-09-04T08:05:11.359Z,19.37
2022-09-04T08:08:26.695Z,19.57
2022-09-04T08:11:17.538Z,19.84
2022-09-04T08:14:17.278Z,20.12
2022-09-04T08:17:02.056Z,20.31
2022-09-04T08:19:48.994Z,20.42
2022-09-04T08:22:31.529Z,20.48
2022-09-04T08:25:17.076Z,20.57
2022-09-04T08:28:02.980Z,20.66
2022-09-04T08:30:42.048Z,20.99
2022-09-04T08:33:34.341Z,20.92
2022-09-04T08:36:16.313Z,21.14
2022-09-04T08:39:07.400Z,21.32
2022-09-04T08:42:07.009Z,21.39
2022-09-04T08:45:23.262Z,21.54
2022-09-04T08:48:54.777Z,21.77
2022-09-04T08:52:03.529Z,21.93
2022-09-04T08:55:24.202Z,21.93
2022-09-04T08:58:48.263Z,21.98
2022-09-04T09:02:04.207Z,22.23
2022-09-04T09:05:11.211Z,22.22
2022-09-04T09:08:41.570Z,22.59
2022-09-04T09:11:57.746Z,23.14
2022-09-04T09:15:31.200Z,23.57
2022-09-04T09:18:18.221Z,23.84
2022-09-04T09:20:55.066Z,24.12
2022-09-04T09:23:41.708Z,24.11
2022-09-04T09:26:26.671Z,24.24
2022-09-04T09:29:31.161Z,24.20
2022-09-04T09:32:49.587Z,24.52
2022-09-04T09:36:07.756Z,24.71
2022-09-04T09:39:09.801Z,24.80
2022-09-04T09:42:32.510Z,24.84
2022-09-04T09:45:36.789Z,24.81
2022-09-04T09:49:04.220Z,24.74
2022-09-04T09:52:19.366Z,24.75
2022-09-04T09:55:32.751Z,24.73
2022-09-04T09:58:47.957Z,24.83
2022-09-04T10:01:43.786Z,25.09
2022-09-04T10:05:03.614Z,25.25
2022-09-04T10:08:33.825Z,25.17
2022-09-04T10:11:57.365Z,25.41
2022-09-04T10:15:37.687Z,25.24
2022-09-04T10:19:06.442Z,25.52
2022-09-04T10:22:36.558Z,25.72
2022-09-04T10:25:49.494Z,25.92
2022-09-04T10:28:55.838Z,26.27
2022-09-04T10:32:18.013Z,26.37
2022-09-04T10:35:18.947Z,26.53
2022-09-04T10:38:17.708Z,26.86
2022-09-04T10:41:15.692Z,26.91
2022-09-04T10:44:15.275Z,27.11
2022-09-04T10:46:57.649Z,27.27
2022-09-04T10:50:04.872Z,27.03
2022-09-04T10:53:10.644Z,26.88
2022-09-04T10:56:12.802Z,26.91
2022-09-04T10:59:25.868Z,26.77
2022-09-04T11:02:22.684Z,26.83
2022-09-04T11:05:27.824Z,27.14
2022-09-04T11:08:27.709Z,27.20
2022-09-04T11:11:18.260Z,27.03
2022-09-04T11:14:57.466Z,27.51
2022-09-04T11:18:20.578Z,27.55
2022-09-04T11:21:49.519Z,27.46
2022-09-04T11:25:19.404Z,27.81
2022-09-04T11:28:16.837Z,27.92
2022-09-04T11:31:09.081Z,27.81
2022-09-04T11:34:33.755Z,27.93
2022-09-04T11:38:00.071Z,27.96
2022-09-04T11:41:58.452Z,28.08
2022-09-04T11:45:09.801Z,28.43
2022-09-04T11:48:12.105Z,28.69
2022-09-04T11:51:03.404Z,28.67
2022-09-04T11:54:26.495Z,28.06
2022-09-04T11:57:13.557Z,27.04
2022-09-04T12:00:09.514Z,26.16
2022-09-04T12:03:07.941Z,25.66
2022-09-04T12:06:13.639Z,25.65
2022-09-04T12:09:37.337Z,25.88
2022-09-04T12:12:39.482Z,26.18
2022-09-04T12:15:29.003Z,25.93
2022-09-04T12:18:41.916Z,25.56
2022-09-04T12:21:53.947Z,24.89
2022-09-04T12:25:06.914Z,24.44
2022-09-04T12:28:26.915Z,23.96
2022-09-04T12:31:24.460Z,24.07
2022-09-04T12:34:39.654Z,24.27
2022-09-04T12:38:01.970Z,23.99
2022-09-04T12:40:41.297Z,24.17
2022-09-04T12:43:31.643Z,24.72
2022-09-04T12:46:33.381Z,25.06
2022-09-04T12:49:29.140Z,24.96
2022-09-04T12:52:19.260Z,25.31
2022-09-04T12:55:03.337Z,25.25
2022-09-04T12:57:46.741Z,25.11
2022-09-04T13:00:18.618Z,25.04
2022-09-04T13:03:12.194Z,24.81
2022-09-04T13:06:04.426Z,24.72
2022-09-04T13:08:53.668Z,24.84
2022-09-04T13:11:41.515Z,24.81
2022-09-04T13:14:58.744Z,24.47
2022-09-04T13:17:37.293Z,24.34
2022-09-04T13:20:21.040Z,24.04
2022-09-04T13:23:12.731Z,23.82
2022-09-04T13:25:59.685Z,23.79
2022-09-04T13:28:45.381Z,23.96
2022-09-04T13:31:48.213Z,24.07
2022-09-04T13:34:24.142Z,23.91
2022-09-04T13:37:07.105Z,24.06
2022-09-04T13:40:12.539Z,24.15
2022-09-04T13:43:32.805Z,24.12
2022-09-04T13:46:09.067Z,24.04
2022-09-04T13:48:44.240Z,23.86
2022-09-04T13:51:19.053Z,23.57
2022-09-04T13:54:05.255Z,23.31
2022-09-04T13:56:41.254Z,23.42
2022-09-04T13:59:18.499Z,23.79
2022-09-04T14:01:52.582Z,24.45
2022-09-04T14:04:26.765Z,25.14
2022-09-04T14:07:07.353Z,25.75
2022-09-04T14:09:45.123Z,26.37
2022-09-04T14:12:32.969Z,26.86
2022-09-04T14:15:38.234Z,26.91
2022-09-04T14:18:24.779Z,26.90
2022-09-04T14:21:01.226Z,26.54
2022-09-04T14:23:45.976Z,26.58
2022-09-04T14:26:29.894Z,26.78
2022-09-04T14:29:08.013Z,26.83
2022-09-04T14:31:52.621Z,26.55
2022-09-04T14:34:37.641Z,26.11
2022-09-04T14:37:20.340Z,25.77
2022-09-04T14:39:55.317Z,25.54
2022-09-04T14:42:42.812Z,25.53
2022-09-04T14:45:50.379Z,25.78
2022-09-04T14:48:24.510Z,25.61
2022-09-04T14:50:57.854Z,25.18
2022-09-04T14:53:31.963Z,25.00
2022-09-04T14:56:34.753Z,25.18
2022-09-04T14:59:21.601Z,25.06
2022-09-04T15:02:12.884Z,25.14
2022-09-04T15:04:50.344Z,25.41
2022-09-04T15:07:34.468Z,25.85
2022-09-04T15:10:17.598Z,26.17
2022-09-04T15:12:55.898Z,26.21
2022-09-04T15:15:32.988Z,25.99
2022-09-04T15:18:12.413Z,25.84
2022-09-04T15:20:53.819Z,25.75
2022-09-04T15:23:33.361Z,25.88
2022-09-04T15:26:08.994Z,25.90
2022-09-04T15:28:47.001Z,25.87
2022-09-04T15:31:21.039Z,25.57
2022-09-04T15:33:50.610Z,25.24
2022-09-04T15:36:25.844Z,25.03
2022-09-04T15:38:59.221Z,24.55
2022-09-04T15:41:41.025Z,24.06
2022-09-04T15:44:23.238Z,23.74
2022-09-04T15:47:07.579Z,23.52
2022-09-04T15:49:48.119Z,23.20
2022-09-04T15:52:39.424Z,23.16
2022-09-04T15:55:22.255Z,22.98
2022-09-04T15:58:01.508Z,22.71
2022-09-04T16:00:32.986Z,22.59
2022-09-04T16:03:15.280Z,22.43
2022-09-04T16:05:51.479Z,22.24
2022-09-04T16:08:31.887Z,22.13
2022-09-04T16:11:04.590Z,22.05
2022-09-04T16:13:44.428Z,21.99
2022-09-04T16:16:22.987Z,21.92
2022-09-04T16:19:24.032Z,21.69
2022-09-04T16:22:09.345Z,21.70
2022-09-04T16:24:47.340Z,21.53
2022-09-04T16:27:22.082Z,21.40
2022-09-04T16:29:57.390Z,20.98
2022-09-04T16:32:30.059Z,21.29
2022-09-04T16:35:04.949Z,21.09
2022-09-04T16:37:43.480Z,21.19
2022-09-04T16:40:31.081Z,21.20
2022-09-04T16:43:12.205Z,21.22
2022-09-04T16:45:49.925Z,21.11
2022-09-04T16:48:34.149Z,21.16
2022-09-04T16:51:39.238Z,21.16
2022-09-04T16:54:08.147Z,21.21
2022-09-04T16:56:43.622Z,21.07
2022-09-04T16:59:26.424Z,21.13
2022-09-04T17:02:02.503Z,20.99
2022-09-04T17:04:42.670Z,20.94
2022-09-04T17:07:20.443Z,20.87
2022-09-04T17:10:01.905Z,20.84
2022-09-04T17:12:48.468Z,20.82
2022-09-04T17:15:28.834Z,20.79
2022-09-04T17:17:59.481Z,20.88
2022-09-04T17:22:12.960Z,20.91
2022-09-04T17:28:55.573Z,20.88
2022-09-04T17:29:18.803Z,21.05
2022-09-04T17:29:38.318Z,21.12
2022-09-04T17:33:30.598Z,21.18
2022-09-04T17:40:35.593Z,21.14
2022-09-04T17:41:34.629Z,21.16
2022-09-04T17:41:36.712Z,21.16
2022-09-04T17:44:39.072Z,21.17
2022-09-04T17:47:24.829Z,21.19
2022-09-04T17:49:56.592Z,21.08
2022-09-04T17:52:29.106Z,21.07
2022-09-04T17:55:06.776Z,20.99
2022-09-04T17:57:57.429Z,20.87
2022-09-04T18:00:36.150Z,20.86
2022-09-04T18:03:17.539Z,20.83
2022-09-04T18:05:53.655Z,20.62
2022-09-04T18:08:32.617Z,20.78
2022-09-04T18:11:13.346Z,20.75
2022-09-04T18:13:52.200Z,20.79
2022-09-04T18:17:11.228Z,20.81
2022-09-04T18:19:46.556Z,20.80
2022-09-04T18:22:31.917Z,20.78
2022-09-04T18:25:16.760Z,20.66
2022-09-04T18:28:06.174Z,20.68
2022-09-04T18:37:06.096Z,20.61
2022-09-04T18:37:24.172Z,20.66
2022-09-04T18:37:44.245Z,20.54
2022-09-04T18:40:12.787Z,20.58
2022-09-04T18:50:22.333Z,20.65
2022-09-04T18:50:33.449Z,20.56
2022-09-04T18:50:49.496Z,20.56
2022-09-04T18:51:36.756Z,20.43
2022-09-04T18:54:13.300Z,20.33
2022-09-04T18:56:47.990Z,20.35
2022-09-04T18:59:25.003Z,20.38
2022-09-04T19:02:04.512Z,20.34
2022-09-04T19:04:49.479Z,20.22
2022-09-04T19:07:32.005Z,20.22
2022-09-04T19:10:25.781Z,20.17
2022-09-04T19:13:05.362Z,20.19
2022-09-04T19:16:03.025Z,20.14
2022-09-04T19:18:48.322Z,20.10
2022-09-04T19:21:37.473Z,20.11
2022-09-04T19:24:34.588Z,20.12
2022-09-04T19:27:26.853Z,20.11
2022-09-04T19:30:18.160Z,20.15
2022-09-04T19:33:09.739Z,20.21
2022-09-04T19:35:48.738Z,20.07
2022-09-04T19:45:36.196Z,20.03
2022-09-04T19:46:00.787Z,20.03
2022-09-04T19:46:09.185Z,20.05
2022-09-04T19:47:37.336Z,19.95
2022-09-04T19:53:19.048Z,19.91
2022-09-04T19:53:37.828Z,19.79
2022-09-04T19:56:25.099Z,19.93
2022-09-04T19:59:04.975Z,19.96
2022-09-04T20:01:46.622Z,19.77
2022-09-04T20:04:27.817Z,19.79
2022-09-04T20:07:02.843Z,19.89
2022-09-04T20:09:40.014Z,19.91
2022-09-04T20:12:21.926Z,19.90
2022-09-04T20:14:57.208Z,19.63
2022-09-04T20:17:59.896Z,19.83
2022-09-04T20:20:46.635Z,19.95
2022-09-04T20:23:34.078Z,19.84
2022-09-04T20:26:21.611Z,19.86
2022-09-04T20:29:18.269Z,19.87
2022-09-04T20:31:53.872Z,20.00
2022-09-04T20:34:39.071Z,19.99
2022-09-04T20:37:33.198Z,19.99
2022-09-04T20:40:15.833Z,20.09
2022-09-04T20:42:56.357Z,20.02
2022-09-04T20:48:12.624Z,19.96
2022-09-04T20:52:52.408Z,19.97
2022-09-04T20:52:52.614Z,20.07
2022-09-04T20:55:00.311Z,20.04
2022-09-04T21:03:05.155Z,20.15
2022-09-04T21:03:19.031Z,19.98
2022-09-04T21:03:57.001Z,19.95
2022-09-04T21:06:34.892Z,19.76
2022-09-04T21:09:54.859Z,20.00
2022-09-04T21:12:35.371Z,20.08
2022-09-04T21:15:17.680Z,19.79
2022-09-04T21:18:14.378Z,20.04
2022-09-04T21:21:27.385Z,20.04
2022-09-04T21:24:50.385Z,19.99
2022-09-04T21:27:56.364Z,20.09
2022-09-04T21:30:58.316Z,20.06
2022-09-04T21:33:39.582Z,20.07
2022-09-04T21:36:25.687Z,20.04
2022-09-04T21:39:30.309Z,20.12
2022-09-04T21:42:34.856Z,20.04
2022-09-04T21:45:38.658Z,20.06
2022-09-04T21:48:42.215Z,20.06
2022-09-04T21:51:48.278Z,20.11
2022-09-04T21:57:06.854Z,19.97
2022-09-04T22:02:41.530Z,19.92
2022-09-04T22:02:41.704Z,19.97
2022-09-04T22:04:48.682Z,19.98
2022-09-04T22:08:58.732Z,19.93
2022-09-04T22:13:38.176Z,19.73
2022-09-04T22:13:49.907Z,19.82
2022-09-04T22:17:04.775Z,19.83
2022-09-04T22:20:19.871Z,19.77
2022-09-04T22:23:35.518Z,19.91
2022-09-04T22:27:13.297Z,19.91
2022-09-04T22:29:58.396Z,19.98
2022-09-04T22:33:19.680Z,19.95
2022-09-04T22:36:29.337Z,19.99
2022-09-04T22:39:37.902Z,19.98
2022-09-04T22:42:45.576Z,19.96
2022-09-04T22:45:46.195Z,19.97
2022-09-04T22:49:12.648Z,19.94
2022-09-04T22:52:25.785Z,20.07
2022-09-04T22:55:39.582Z,19.98
2022-09-04T22:58:42.418Z,19.92
2022-09-04T23:01:37.030Z,19.92
2022-09-04T23:04:26.547Z,19.84
2022-09-04T23:13:47.800Z,19.89
2022-09-04T23:13:52.839Z,19.85
2022-09-04T23:14:07.708Z,19.78
2022-09-04T23:17:34.482Z,19.85
2022-09-04T23:26:32.532Z,19.87
2022-09-04T23:26:41.675Z,19.76
2022-09-04T23:27:41.050Z,19.83
2022-09-04T23:30:25.215Z,19.67
2022-09-04T23:33:54.347Z,19.76
2022-09-04T23:37:01.480Z,19.75
2022-09-04T23:40:10.371Z,19.79
2022-09-04T23:43:28.384Z,19.70
2022-09-04T23:46:50.325Z,19.78
2022-09-04T23:49:53.092Z,19.70
2022-09-04T23:52:48.799Z,19.70
2022-09-04T23:55:37.296Z,19.75
2022-09-04T23:58:53.952Z,19.76
